createdAt,value
2022-12-07T00:01:36.970Z,6.73
2022-12-07T00:04:06.075Z,6.10
2022-12-07T00:06:34.482Z,6.30
2022-12-07T00:09:01.486Z,6.23
2022-12-07T00:11:28.632Z,6.40
2022-12-07T00:13:59.291Z,7.20
2022-12-07T00:16:29.832Z,7.43
2022-12-07T00:18:57.197Z,6.50
2022-12-07T00:21:29.662Z,6.93
2022-12-07T00:23:57.459Z,6.10
2022-12-07T00:26:28.485Z,6.47
2022-12-07T00:28:57.952Z,5.70
2022-12-07T00:31:27.528Z,6.00
2022-12-07T00:33:54.844Z,6.53
2022-12-07T00:36:27.067Z,5.93
2022-12-07T00:38:56.284Z,5.93
2022-12-07T00:41:25.796Z,6.83
2022-12-07T00:43:54.116Z,6.37
2022-12-07T00:46:22.531Z,7.00
2022-12-07T00:48:50.709Z,7.27
2022-12-07T00:51:19.840Z,7.37
2022-12-07T00:53:47.010Z,6.50
2022-12-07T00:56:19.974Z,5.93
2022-12-07T00:58:58.414Z,5.90
2022-12-07T01:01:27.603Z,6.80
2022-12-07T01:03:54.887Z,8.00
2022-12-07T01:06:23.450Z,6.37
2022-12-07T01:08:50.655Z,6.63
2022-12-07T01:11:20.664Z,7.53
2022-12-07T01:13:48.370Z,7.90
2022-12-07T01:16:17.728Z,7.07
2022-12-07T01:18:48.142Z,7.00
2022-12-07T01:21:18.952Z,6.80
2022-12-07T01:23:46.145Z,7.13
2022-12-07T01:26:15.991Z,6.40
2022-12-07T01:28:43.654Z,7.00
2022-12-07T01:31:21.181Z,7.13
2022-12-07T01:33:51.316Z,7.07
2022-12-07T01:36:26.364Z,6.40
2022-12-07T01:38:57.819Z,6.13
2022-12-07T01:41:28.476Z,6.30
2022-12-07T01:44:07.429Z,6.10
2022-12-07T01:46:34.496Z,6.73
2022-12-07T01:49:02.644Z,6.37
2022-12-07T01:51:30.172Z,7.57
2022-12-07T01:53:57.616Z,6.77
2022-12-07T01:56:27.324Z,8.13
2022-12-07T01:58:56.495Z,8.33
2022-12-07T02:01:23.868Z,6.43
2022-12-07T02:03:51.293Z,7.53
2022-12-07T02:06:23.358Z,7.37
2022-12-07T02:08:51.064Z,7.30
2022-12-07T02:11:18.921Z,7.50
2022-12-07T02:13:47.412Z,7.00
2022-12-07T02:16:36.081Z,7.00
2022-12-07T02:19:40.389Z,6.97
2022-12-07T02:22:15.971Z,6.70
2022-12-07T02:25:00.800Z,6.80
2022-12-07T02:27:36.823Z,7.03
2022-12-07T02:30:07.195Z,7.23
2022-12-07T02:32:48.030Z,6.80
2022-12-07T02:35:39.605Z,6.77
2022-12-07T02:38:06.590Z,6.87
2022-12-07T02:40:39.340Z,5.80
2022-12-07T02:43:13.030Z,7.23
2022-12-07T02:45:42.762Z,7.60
2022-12-07T02:48:13.074Z,7.00
2022-12-07T02:50:40.325Z,7.70
2022-12-07T02:53:27.248Z,7.00
2022-12-07T02:55:54.325Z,6.90
2022-12-07T02:58:47.199Z,7.00
2022-12-07T03:01:34.649Z,7.07
2022-12-07T03:04:42.887Z,6.37
2022-12-07T03:07:30.069Z,6.20
2022-12-07T03:10:13.900Z,7.00
2022-12-07T03:13:08.438Z,7.97
2022-12-07T03:15:48.830Z,7.10
2022-12-07T03:18:19.854Z,7.10
2022-12-07T03:20:49.336Z,8.20
2022-12-07T03:23:18.343Z,6.90
2022-12-07T03:25:58.719Z,7.43
2022-12-07T03:28:34.067Z,6.80
2022-12-07T03:31:18.942Z,7.30
2022-12-07T03:33:59.592Z,7.27
2022-12-07T03:37:07.198Z,7.10
2022-12-07T03:40:08.310Z,7.97
2022-12-07T03:42:35.605Z,7.30
2022-12-07T03:45:04.469Z,7.07
2022-12-07T03:47:49.017Z,7.93
2022-12-07T03:50:30.707Z,8.43
2022-12-07T03:53:20.102Z,7.30
2022-12-07T03:55:49.895Z,7.00
2022-12-07T03:58:22.797Z,6.90
2022-12-07T04:00:51.255Z,7.67
2022-12-07T04:03:18.590Z,6.10
2022-12-07T04:05:46.077Z,7.40
2022-12-07T04:08:13.258Z,7.30
2022-12-07T04:10:40.363Z,6.70
2022-12-07T04:13:07.390Z,6.50
2022-12-07T04:15:34.499Z,6.17
2022-12-07T04:18:01.499Z,7.73
2022-12-07T04:20:28.526Z,7.90
2022-12-07T04:22:55.628Z,8.20
2022-12-07T04:25:22.649Z,6.43
2022-12-07T04:27:49.659Z,7.40
2022-12-07T04:30:16.746Z,6.43
2022-12-07T04:32:43.856Z,6.93
2022-12-07T04:35:11.075Z,7.57
2022-12-07T04:37:40.246Z,6.80
2022-12-07T04:40:11.318Z,7.30
2022-12-07T04:42:38.890Z,7.00
2022-12-07T04:45:06.510Z,7.17
2022-12-07T04:47:33.498Z,7.73
2022-12-07T04:50:01.041Z,6.40
2022-12-07T04:52:28.341Z,7.50
2022-12-07T04:54:55.374Z,6.53
2022-12-07T04:57:22.375Z,7.03
2022-12-07T04:59:49.466Z,6.27
2022-12-07T05:02:16.545Z,7.40
2022-12-07T05:04:43.551Z,6.10
2022-12-07T05:07:10.610Z,6.90
2022-12-07T05:09:37.614Z,8.80
2022-12-07T05:12:04.720Z,6.00
2022-12-07T05:14:31.669Z,7.20
2022-12-07T05:16:58.727Z,7.07
2022-12-07T05:19:27.216Z,6.57
2022-12-07T05:21:54.322Z,6.53
2022-12-07T05:24:21.437Z,6.23
2022-12-07T05:26:48.678Z,6.70
2022-12-07T05:29:17.980Z,6.90
2022-12-07T05:31:45.919Z,5.70
2022-12-07T05:34:13.444Z,6.70
2022-12-07T05:36:40.554Z,6.40
2022-12-07T05:39:08.418Z,8.30
2022-12-07T05:41:53.918Z,5.77
2022-12-07T05:44:20.952Z,6.90
2022-12-07T05:46:47.971Z,6.60
2022-12-07T05:49:14.973Z,8.43
2022-12-07T05:51:42.038Z,5.30
2022-12-07T05:54:09.144Z,6.63
2022-12-07T05:56:36.194Z,5.57
2022-12-07T05:59:21.796Z,7.00
2022-12-07T06:01:49.265Z,5.80
2022-12-07T06:04:16.409Z,6.60
2022-12-07T06:06:43.459Z,6.77
2022-12-07T06:09:11.196Z,12.40
2022-12-07T06:11:56.833Z,21.03
2022-12-07T06:14:24.264Z,37.77
2022-12-07T06:16:51.563Z,34.00
2022-12-07T06:19:19.364Z,25.67
2022-12-07T06:21:47.402Z,30.30
2022-12-07T06:24:16.438Z,30.27
2022-12-07T06:26:44.311Z,29.47
2022-12-07T06:29:12.463Z,28.10
2022-12-07T06:31:39.939Z,26.37
2022-12-07T06:34:19.002Z,24.37
2022-12-07T06:36:47.510Z,22.03
2022-12-07T06:39:14.565Z,21.60
2022-12-07T06:41:41.641Z,19.40
2022-12-07T06:44:08.845Z,19.40
2022-12-07T06:46:38.851Z,18.23
2022-12-07T06:49:06.366Z,16.20
2022-12-07T06:51:36.317Z,16.73
2022-12-07T06:54:06.362Z,15.23
2022-12-07T06:56:33.343Z,13.97
2022-12-07T06:59:00.516Z,13.67
2022-12-07T07:01:27.622Z,12.90
2022-12-07T07:03:54.964Z,12.10
2022-12-07T07:06:21.993Z,10.80
2022-12-07T07:08:49.153Z,9.90
2022-12-07T07:11:16.321Z,9.77
2022-12-07T07:13:43.335Z,11.30
2022-12-07T07:16:10.416Z,8.43
2022-12-07T07:18:37.700Z,8.13
2022-12-07T07:21:05.172Z,9.30
2022-12-07T07:23:32.425Z,6.97
2022-12-07T07:25:59.471Z,5.57
2022-12-07T07:28:26.482Z,5.83
2022-12-07T07:30:53.629Z,5.77
2022-12-07T07:33:20.802Z,6.03
2022-12-07T07:35:47.986Z,4.53
2022-12-07T07:38:15.620Z,4.07
2022-12-07T07:40:42.664Z,3.63
2022-12-07T07:43:09.733Z,3.63
2022-12-07T07:45:37.523Z,3.00
2022-12-07T07:48:04.585Z,2.70
2022-12-07T07:50:31.546Z,2.93
2022-12-07T07:52:59.289Z,3.13
2022-12-07T07:55:26.269Z,3.57
2022-12-07T07:57:55.062Z,2.03
2022-12-07T08:00:22.972Z,2.20
2022-12-07T08:02:51.377Z,2.27
2022-12-07T08:05:18.551Z,2.60
2022-12-07T08:07:45.852Z,2.67
2022-12-07T08:10:14.353Z,1.70
2022-12-07T08:13:01.667Z,2.20
2022-12-07T08:15:30.943Z,2.13
2022-12-07T08:17:59.066Z,0.93
2022-12-07T08:20:26.534Z,1.60
2022-12-07T08:22:53.570Z,1.60
2022-12-07T08:25:20.983Z,1.90
2022-12-07T08:27:48.100Z,1.50
2022-12-07T08:30:15.205Z,1.50
2022-12-07T08:32:42.274Z,1.57
2022-12-07T08:35:09.702Z,1.00
2022-12-07T08:37:37.469Z,1.87
2022-12-07T08:40:07.149Z,1.57
2022-12-07T08:42:41.063Z,1.10
2022-12-07T08:45:13.535Z,1.20
2022-12-07T08:47:48.114Z,1.30
2022-12-07T08:50:15.681Z,0.93
2022-12-07T08:52:43.717Z,1.00
2022-12-07T08:55:12.514Z,1.10
2022-12-07T08:57:40.773Z,1.23
2022-12-07T09:00:08.590Z,1.30
2022-12-07T09:02:35.960Z,1.47
2022-12-07T09:05:03.163Z,1.10
2022-12-07T09:07:33.278Z,1.40
2022-12-07T09:10:00.885Z,1.07
2022-12-07T09:12:28.120Z,1.10
2022-12-07T09:14:55.196Z,1.20
2022-12-07T09:17:22.432Z,1.10
2022-12-07T09:19:49.488Z,1.70
2022-12-07T09:22:16.553Z,0.93
2022-12-07T09:24:44.410Z,1.20
2022-12-07T09:27:11.424Z,0.80
2022-12-07T09:29:38.554Z,1.03
2022-12-07T09:32:11.350Z,1.30
2022-12-07T09:34:38.838Z,1.77
2022-12-07T09:37:06.113Z,1.73
2022-12-07T09:39:33.538Z,2.20
2022-12-07T09:42:03.960Z,2.60
2022-12-07T09:44:31.189Z,2.30
2022-12-07T09:46:58.761Z,1.77
2022-12-07T09:49:28.976Z,2.03
2022-12-07T09:52:03.141Z,2.90
2022-12-07T09:54:31.750Z,2.57
2022-12-07T09:57:00.129Z,1.57
2022-12-07T09:59:28.624Z,2.20
2022-12-07T10:02:24.678Z,1.57
2022-12-07T10:04:52.097Z,1.47
2022-12-07T10:07:19.186Z,2.10
2022-12-07T10:09:46.251Z,1.80
2022-12-07T10:12:14.457Z,1.43
2022-12-07T10:15:08.505Z,1.60
2022-12-07T10:17:42.443Z,1.20
2022-12-07T10:20:17.686Z,1.57
2022-12-07T10:23:06.896Z,1.10
2022-12-07T10:25:37.468Z,1.27
2022-12-07T10:28:17.440Z,1.30
2022-12-07T10:31:05.337Z,1.10
2022-12-07T10:33:39.430Z,0.83
2022-12-07T10:36:26.524Z,1.03
2022-12-07T10:39:02.261Z,1.13
2022-12-07T10:41:29.321Z,0.90
2022-12-07T10:43:58.533Z,0.80
2022-12-07T10:46:46.731Z,1.00
2022-12-07T10:49:41.015Z,0.77
2022-12-07T10:52:11.112Z,0.90
2022-12-07T10:54:54.206Z,1.17
2022-12-07T10:57:21.234Z,0.90
2022-12-07T11:00:01.561Z,1.30
2022-12-07T11:02:46.577Z,1.10
2022-12-07T11:05:47.915Z,1.40
2022-12-07T11:08:40.481Z,1.37
2022-12-07T11:11:32.852Z,1.10
2022-12-07T11:14:18.592Z,0.87
2022-12-07T11:17:13.723Z,1.37
2022-12-07T11:20:02.799Z,0.90
2022-12-07T11:22:57.317Z,1.00
2022-12-07T11:25:40.772Z,1.10
2022-12-07T11:28:22.875Z,2.30
2022-12-07T11:31:27.305Z,1.53
2022-12-07T11:34:03.958Z,1.00
2022-12-07T11:36:37.066Z,1.10
2022-12-07T11:39:22.444Z,0.87
2022-12-07T11:41:53.744Z,0.77
2022-12-07T11:44:40.525Z,0.90
2022-12-07T11:47:33.796Z,1.17
2022-12-07T11:50:18.151Z,0.70
2022-12-07T11:52:52.748Z,0.73
2022-12-07T11:55:52.368Z,0.63
2022-12-07T11:58:22.616Z,0.90
2022-12-07T12:01:06.003Z,0.80
2022-12-07T12:03:39.395Z,0.70
2022-12-07T12:06:06.606Z,0.60
2022-12-07T12:11:51.995Z,1.00
2022-12-07T12:14:46.785Z,1.17
2022-12-07T12:17:40.366Z,1.30
2022-12-07T12:20:22.410Z,1.57
2022-12-07T12:23:02.442Z,2.07
2022-12-07T12:25:51.643Z,1.87
2022-12-07T12:28:21.601Z,3.10
2022-12-07T12:31:11.610Z,2.67
2022-12-07T12:33:43.498Z,3.30
2022-12-07T12:36:19.195Z,3.67
2022-12-07T12:39:08.661Z,4.47
2022-12-07T12:41:39.291Z,3.40
2022-12-07T12:44:21.220Z,2.97
2022-12-07T12:47:01.294Z,3.13
2022-12-07T12:49:37.461Z,3.07
2022-12-07T12:52:16.232Z,3.00
2022-12-07T12:55:01.109Z,2.80
2022-12-07T12:57:31.399Z,2.90
2022-12-07T13:00:00.607Z,2.47
2022-12-07T13:02:30.412Z,3.70
2022-12-07T13:05:04.193Z,3.80
2022-12-07T13:07:52.795Z,3.10
2022-12-07T13:10:42.612Z,4.60
2022-12-07T13:13:13.455Z,4.30
2022-12-07T13:15:49.980Z,4.43
2022-12-07T13:18:28.957Z,4.73
2022-12-07T13:21:00.596Z,3.73
2022-12-07T13:23:44.426Z,3.70
2022-12-07T13:26:29.967Z,4.10
2022-12-07T13:29:12.700Z,2.23
2022-12-07T13:31:59.873Z,1.63
2022-12-07T13:34:37.178Z,2.43
2022-12-07T13:37:11.949Z,2.20
2022-12-07T13:39:51.458Z,2.07
2022-12-07T13:42:30.339Z,2.00
2022-12-07T13:44:59.775Z,2.43
2022-12-07T13:47:49.682Z,2.53
2022-12-07T13:50:30.527Z,2.07
2022-12-07T13:53:00.454Z,2.37
2022-12-07T13:55:29.289Z,1.57
2022-12-07T13:57:57.057Z,2.20
2022-12-07T14:00:27.143Z,1.50
2022-12-07T14:03:03.905Z,1.80
2022-12-07T14:05:33.924Z,1.40
2022-12-07T14:08:14.196Z,1.53
2022-12-07T14:10:56.049Z,1.30
2022-12-07T14:13:36.417Z,2.00
2022-12-07T14:16:06.638Z,1.30
2022-12-07T14:18:41.934Z,1.43
2022-12-07T14:21:11.799Z,0.83
2022-12-07T14:23:40.876Z,2.00
2022-12-07T14:26:21.148Z,0.77
2022-12-07T14:28:48.963Z,1.33
2022-12-07T14:31:25.192Z,0.90
2022-12-07T14:34:00.874Z,0.70
2022-12-07T14:36:28.001Z,1.10
2022-12-07T14:38:57.393Z,1.00
2022-12-07T14:41:54.142Z,1.53
2022-12-07T14:44:25.703Z,1.07
2022-12-07T14:49:44.691Z,1.20
2022-12-07T14:55:05.858Z,1.00
2022-12-07T14:57:33.327Z,1.00
2022-12-07T15:00:00.507Z,0.90
2022-12-07T15:02:27.544Z,4.43
2022-12-07T15:04:54.577Z,5.00
2022-12-07T15:07:22.319Z,11.63
2022-12-07T15:09:50.013Z,8.50
2022-12-07T15:12:17.061Z,12.87
2022-12-07T15:14:44.145Z,12.47
2022-12-07T15:17:26.044Z,13.10
2022-12-07T15:19:57.127Z,14.43
2022-12-07T15:22:24.120Z,14.53
2022-12-07T15:24:51.126Z,13.97
2022-12-07T15:27:18.183Z,14.20
2022-12-07T15:29:45.460Z,15.20
2022-12-07T15:32:12.569Z,14.27
2022-12-07T15:34:40.836Z,13.83
2022-12-07T15:37:09.204Z,15.07
2022-12-07T15:39:38.130Z,11.10
2022-12-07T15:42:05.371Z,10.07
2022-12-07T15:44:50.748Z,11.10
2022-12-07T15:47:18.052Z,9.83
2022-12-07T15:49:45.094Z,9.03
2022-12-07T15:52:12.214Z,8.40
2022-12-07T15:54:39.309Z,8.37
2022-12-07T15:57:06.361Z,5.70
2022-12-07T15:59:33.377Z,6.63
2022-12-07T16:02:00.534Z,5.37
2022-12-07T16:04:30.304Z,5.53
2022-12-07T16:06:57.860Z,5.43
2022-12-07T16:09:25.268Z,4.80
2022-12-07T16:11:53.270Z,4.83
2022-12-07T16:14:20.646Z,5.57
2022-12-07T16:16:48.674Z,3.80
2022-12-07T16:19:15.701Z,3.70
2022-12-07T16:21:43.374Z,3.33
2022-12-07T16:24:11.326Z,2.80
2022-12-07T16:26:38.475Z,3.93
2022-12-07T16:29:05.632Z,3.40
2022-12-07T16:31:32.793Z,4.20
2022-12-07T16:34:00.430Z,2.80
2022-12-07T16:37:02.105Z,2.13
2022-12-07T16:39:15.888Z,3.00
2022-12-07T16:41:43.187Z,2.77
2022-12-07T16:44:13.671Z,3.70
2022-12-07T16:46:41.853Z,1.70
2022-12-07T16:49:16.107Z,2.07
2022-12-07T16:51:48.340Z,1.77
2022-12-07T16:54:15.440Z,1.70
2022-12-07T16:56:42.604Z,1.60
2022-12-07T16:59:09.981Z,2.10
2022-12-07T17:01:37.167Z,1.90
2022-12-07T17:04:05.415Z,2.00
2022-12-07T17:06:33.118Z,2.10
2022-12-07T17:09:00.584Z,1.83
2022-12-07T17:11:34.217Z,1.90
2022-12-07T17:14:19.456Z,2.50
2022-12-07T17:16:46.626Z,2.17
2022-12-07T17:19:15.827Z,2.07
2022-12-07T17:21:43.699Z,3.00
2022-12-07T17:24:13.563Z,2.63
2022-12-07T17:26:41.500Z,2.67
2022-12-07T17:29:12.800Z,2.40
2022-12-07T17:31:41.371Z,2.27
2022-12-07T17:34:14.183Z,3.00
2022-12-07T17:36:41.881Z,2.90
2022-12-07T17:39:15.520Z,2.67
2022-12-07T17:42:01.170Z,2.77
2022-12-07T17:44:28.376Z,2.67
2022-12-07T17:46:58.444Z,3.07
2022-12-07T17:49:26.769Z,4.23
2022-12-07T17:52:12.623Z,4.23
2022-12-07T17:54:39.799Z,4.30
2022-12-07T17:57:07.020Z,4.77
2022-12-07T17:59:34.242Z,4.33
2022-12-07T18:02:07.475Z,4.60
2022-12-07T18:04:34.527Z,4.57
2022-12-07T18:07:01.639Z,4.20
2022-12-07T18:09:28.731Z,4.73
2022-12-07T18:11:55.699Z,4.33
2022-12-07T18:14:22.916Z,5.20
2022-12-07T18:16:50.309Z,5.27
2022-12-07T18:19:20.413Z,12.70
2022-12-07T18:21:51.969Z,48.87
2022-12-07T18:24:20.029Z,34.13
2022-12-07T18:26:48.291Z,30.57
2022-12-07T18:29:17.567Z,28.77
2022-12-07T18:31:47.479Z,26.20
2022-12-07T18:34:17.592Z,26.00
2022-12-07T18:36:47.472Z,22.47
2022-12-07T18:39:16.275Z,13.37
2022-12-07T18:41:43.541Z,19.50
2022-12-07T18:44:13.338Z,18.23
2022-12-07T18:46:42.540Z,16.53
2022-12-07T18:49:13.780Z,13.70
2022-12-07T18:51:41.166Z,14.47
2022-12-07T18:54:11.992Z,13.60
2022-12-07T18:56:39.062Z,11.17
2022-12-07T18:59:25.642Z,11.70
2022-12-07T19:01:54.760Z,11.07
2022-12-07T19:04:22.545Z,9.60
2022-12-07T19:06:50.064Z,10.40
2022-12-07T19:09:18.355Z,7.90
2022-12-07T19:11:52.072Z,7.53
2022-12-07T19:14:27.145Z,8.60
2022-12-07T19:16:57.765Z,7.10
2022-12-07T19:19:30.402Z,6.73
2022-12-07T19:21:57.739Z,6.50
2022-12-07T19:24:24.817Z,5.77
2022-12-07T19:26:52.655Z,7.70
2022-12-07T19:29:20.261Z,6.03
2022-12-07T19:31:47.881Z,5.33
2022-12-07T19:34:16.609Z,5.40
2022-12-07T19:36:45.004Z,5.63
2022-12-07T19:39:15.226Z,5.10
2022-12-07T19:41:46.611Z,3.87
2022-12-07T19:44:18.847Z,4.70
2022-12-07T19:46:49.787Z,5.30
2022-12-07T19:49:17.849Z,4.00
2022-12-07T19:51:48.606Z,4.60
2022-12-07T19:54:17.777Z,3.73
2022-12-07T19:56:46.079Z,3.73
2022-12-07T19:59:14.440Z,3.37
2022-12-07T20:01:43.088Z,4.77
2022-12-07T20:04:13.423Z,3.47
2022-12-07T20:06:40.612Z,3.40
2022-12-07T20:09:07.678Z,3.27
2022-12-07T20:11:54.925Z,3.70
2022-12-07T20:14:22.275Z,3.60
2022-12-07T20:16:49.683Z,3.70
2022-12-07T20:19:17.127Z,3.53
2022-12-07T20:21:45.408Z,3.40
2022-12-07T20:24:17.382Z,4.00
2022-12-07T20:26:45.796Z,3.57
2022-12-07T20:29:18.188Z,3.90
2022-12-07T20:31:46.434Z,3.93
2022-12-07T20:34:14.434Z,3.73
2022-12-07T20:36:41.695Z,4.20
2022-12-07T20:39:08.889Z,3.47
2022-12-07T20:41:54.604Z,3.90
2022-12-07T20:44:21.619Z,4.20
2022-12-07T20:46:48.830Z,4.40
2022-12-07T20:49:17.188Z,3.70
2022-12-07T20:51:44.928Z,4.00
2022-12-07T20:54:13.016Z,4.73
2022-12-07T20:56:41.090Z,5.77
2022-12-07T20:59:10.848Z,4.70
2022-12-07T21:01:38.007Z,4.37
2022-12-07T21:04:05.386Z,4.27
2022-12-07T21:06:32.445Z,4.03
2022-12-07T21:09:00.683Z,4.00
2022-12-07T21:11:29.490Z,3.20
2022-12-07T21:13:56.748Z,3.17
2022-12-07T21:16:29.259Z,3.40
2022-12-07T21:18:58.166Z,3.20
2022-12-07T21:21:25.223Z,2.60
2022-12-07T21:24:00.035Z,2.90
2022-12-07T21:26:29.248Z,3.10
2022-12-07T21:28:57.310Z,3.40
2022-12-07T21:31:24.923Z,3.60
2022-12-07T21:33:52.306Z,3.87
2022-12-07T21:36:24.999Z,4.50
2022-12-07T21:38:52.688Z,5.70
2022-12-07T21:41:24.293Z,4.90
2022-12-07T21:43:51.707Z,4.93
2022-12-07T21:46:20.254Z,5.37
2022-12-07T21:48:55.480Z,4.53
2022-12-07T21:51:24.011Z,4.23
2022-12-07T21:53:52.646Z,3.93
2022-12-07T21:56:23.834Z,4.10
2022-12-07T21:58:52.729Z,3.67
2022-12-07T22:01:34.394Z,2.73
2022-12-07T22:04:02.263Z,2.70
2022-12-07T22:06:29.423Z,2.40
2022-12-07T22:08:56.602Z,2.47
2022-12-07T22:11:23.683Z,2.17
2022-12-07T22:14:10.576Z,2.17
2022-12-07T22:16:39.350Z,2.47
2022-12-07T22:19:07.437Z,2.50
2022-12-07T22:21:35.462Z,1.87
2022-12-07T22:24:03.640Z,2.00
2022-12-07T22:26:31.121Z,1.60
2022-12-07T22:28:58.169Z,1.67
2022-12-07T22:31:25.446Z,1.53
2022-12-07T22:33:52.941Z,1.70
2022-12-07T22:36:20.193Z,1.83
2022-12-07T22:38:47.739Z,2.37
2022-12-07T22:41:23.872Z,1.73
2022-12-07T22:43:51.046Z,1.47
2022-12-07T22:46:18.202Z,1.23
2022-12-07T22:48:45.302Z,1.50
2022-12-07T22:51:30.152Z,1.17
2022-12-07T22:54:02.571Z,1.00
2022-12-07T22:56:31.295Z,1.63
2022-12-07T22:58:58.385Z,1.13
2022-12-07T23:01:25.329Z,1.27
2022-12-07T23:03:52.685Z,1.30
2022-12-07T23:06:25.945Z,0.97
2022-12-07T23:08:53.677Z,0.80
2022-12-07T23:11:41.476Z,0.97
2022-12-07T23:14:14.174Z,1.47
2022-12-07T23:16:42.057Z,1.03
2022-12-07T23:19:09.277Z,1.10
2022-12-07T23:21:36.332Z,0.90
2022-12-07T23:24:03.677Z,1.00
2022-12-07T23:26:30.664Z,0.93
2022-12-07T23:28:58.518Z,1.20
2022-12-07T23:31:26.890Z,0.70
2022-12-07T23:33:54.076Z,1.40
2022-12-07T23:36:23.880Z,0.67
2022-12-07T23:38:52.473Z,0.70
2022-12-07T23:41:21.729Z,1.00
2022-12-07T23:43:49.101Z,0.60
2022-12-07T23:46:19.933Z,0.67
2022-12-07T23:48:48.710Z,0.70
2022-12-07T23:51:16.584Z,0.70
2022-12-07T23:53:46.097Z,0.70
2022-12-07T23:56:15.660Z,0.70
2022-12-07T23:58:43.224Z,0.63
